createdAt,value
2023-03-13T00:03:20.813Z,17.38
2023-03-13T00:08:22.612Z,20.63
2023-03-13T00:13:24.451Z,14.68
2023-03-13T00:18:26.252Z,13.40
2023-03-13T00:23:29.078Z,12.50
2023-03-13T00:28:32.891Z,14.10
2023-03-13T00:33:36.086Z,18.73
2023-03-13T00:38:39.158Z,18.08
2023-03-13T00:43:43.234Z,13.57
2023-03-13T00:48:46.719Z,13.27
2023-03-13T00:53:48.997Z,13.65
2023-03-13T00:58:51.242Z,11.50
2023-03-13T01:03:55.452Z,19.08
2023-03-13T01:08:58.627Z,18.73
2023-03-13T01:14:05.271Z,13.30
2023-03-13T01:19:13.258Z,17.10
2023-03-13T01:24:15.435Z,16.08
2023-03-13T01:29:18.615Z,9.75
2023-03-13T01:34:22.804Z,15.23
2023-03-13T01:39:24.587Z,13.40
2023-03-13T01:44:27.361Z,14.32
2023-03-13T01:49:33.702Z,12.55
2023-03-13T01:55:11.976Z,16.83
2023-03-13T02:00:20.073Z,16.15
2023-03-13T02:05:25.550Z,20.75
2023-03-13T02:10:31.520Z,18.80
2023-03-13T02:15:34.777Z,11.00
2023-03-13T02:20:39.402Z,14.63
2023-03-13T02:25:46.435Z,13.43
2023-03-13T02:30:54.499Z,15.82
2023-03-13T02:35:57.124Z,14.00
2023-03-13T02:41:01.853Z,16.67
2023-03-13T02:46:17.527Z,12.15
2023-03-13T02:51:42.398Z,11.35
2023-03-13T02:56:49.222Z,14.70
2023-03-13T03:01:54.253Z,14.05
2023-03-13T03:06:57.345Z,12.10
2023-03-13T03:11:59.783Z,17.48
2023-03-13T03:17:03.969Z,19.17
2023-03-13T03:22:05.859Z,9.93
2023-03-13T03:27:08.602Z,12.82
2023-03-13T03:32:21.206Z,9.65
2023-03-13T03:37:23.167Z,9.00
2023-03-13T03:42:25.184Z,10.60
2023-03-13T03:47:27.295Z,10.13
2023-03-13T03:52:29.269Z,12.20
2023-03-13T03:57:31.181Z,9.45
2023-03-13T04:02:33.622Z,10.63
2023-03-13T04:07:35.540Z,12.05
2023-03-13T04:12:37.670Z,11.32
2023-03-13T04:17:39.953Z,14.20
2023-03-13T04:22:43.784Z,10.95
2023-03-13T04:27:46.875Z,10.48
2023-03-13T04:32:51.124Z,14.50
2023-03-13T04:38:16.590Z,9.80
2023-03-13T04:43:56.800Z,17.42
2023-03-13T04:49:21.809Z,8.93
2023-03-13T04:54:46.478Z,14.38
2023-03-13T05:00:10.321Z,12.52
2023-03-13T05:05:35.948Z,10.00
2023-03-13T05:11:06.985Z,13.02
2023-03-13T05:16:35.098Z,12.70
2023-03-13T05:21:55.137Z,10.63
2023-03-13T05:27:11.558Z,15.05
2023-03-13T05:32:27.546Z,11.13
2023-03-13T05:37:29.385Z,9.50
2023-03-13T05:42:46.186Z,9.45
2023-03-13T05:48:20.213Z,11.55
2023-03-13T05:53:57.325Z,9.60
2023-03-13T05:59:19.527Z,13.02
2023-03-13T06:04:35.654Z,9.65
2023-03-13T06:09:37.803Z,11.50
2023-03-13T06:14:39.820Z,10.77
2023-03-13T06:19:58.547Z,52.00
2023-03-13T06:25:00.344Z,11.32
2023-03-13T06:30:02.261Z,9.07
2023-03-13T06:35:04.864Z,11.15
2023-03-13T06:40:07.194Z,7.47
2023-03-13T06:45:10.927Z,8.25
2023-03-13T06:50:12.914Z,9.00
2023-03-13T06:55:14.970Z,10.13
2023-03-13T07:00:17.137Z,7.90
2023-03-13T07:05:18.975Z,8.82
2023-03-13T07:10:20.803Z,6.93
2023-03-13T07:15:22.767Z,5.15
2023-03-13T07:20:24.618Z,6.95
2023-03-13T07:25:26.459Z,8.20
2023-03-13T07:30:28.819Z,4.28
2023-03-13T07:35:30.788Z,8.18
2023-03-13T07:40:32.610Z,3.53
2023-03-13T07:45:34.422Z,8.60
2023-03-13T07:50:36.313Z,5.80
2023-03-13T07:55:38.179Z,2.95
2023-03-13T08:00:40.047Z,4.50
2023-03-13T08:05:42.072Z,3.15
2023-03-13T08:10:45.184Z,4.03
2023-03-13T08:15:47.035Z,3.28
2023-03-13T08:20:48.790Z,2.67
2023-03-13T08:25:50.618Z,5.88
2023-03-13T08:30:54.905Z,3.55
2023-03-13T08:35:58.954Z,2.50
2023-03-13T08:41:00.788Z,4.47
2023-03-13T08:46:02.726Z,2.85
2023-03-13T08:51:06.354Z,3.65
2023-03-13T08:56:14.369Z,2.88
2023-03-13T09:01:16.302Z,3.35
2023-03-13T09:06:18.187Z,3.47
2023-03-13T09:11:21.342Z,2.60
2023-03-13T09:16:25.208Z,2.65
2023-03-13T09:21:33.176Z,4.38
2023-03-13T09:26:34.994Z,2.67
2023-03-13T09:31:38.347Z,4.57
2023-03-13T09:36:40.270Z,2.75
2023-03-13T09:42:02.570Z,2.90
2023-03-13T09:47:13.290Z,4.25
2023-03-13T09:52:18.889Z,2.97
2023-03-13T09:57:25.124Z,2.55
2023-03-13T10:02:33.784Z,2.70
2023-03-13T10:07:36.619Z,3.45
2023-03-13T10:12:47.186Z,3.03
2023-03-13T10:17:49.410Z,2.67
2023-03-13T10:23:16.389Z,2.58
2023-03-13T10:28:22.928Z,3.33
2023-03-13T10:33:27.925Z,2.83
2023-03-13T10:38:46.337Z,2.88
2023-03-13T10:43:59.572Z,5.10
2023-03-13T10:49:05.213Z,19.38
2023-03-13T10:54:30.253Z,3.08
2023-03-13T10:59:32.083Z,4.13
2023-03-13T11:04:37.840Z,4.22
2023-03-13T11:09:39.625Z,2.78
2023-03-13T11:14:42.857Z,2.97
2023-03-13T11:20:01.168Z,3.10
2023-03-13T11:25:18.352Z,2.97
2023-03-13T11:30:23.160Z,7.68
2023-03-13T11:35:50.690Z,7.22
2023-03-13T11:41:05.350Z,3.30
2023-03-13T11:46:16.689Z,3.38
2023-03-13T11:51:24.417Z,2.75
2023-03-13T11:56:50.106Z,3.45
2023-03-13T12:01:57.608Z,3.25
2023-03-13T12:07:04.585Z,4.70
2023-03-13T12:12:38.736Z,3.70
2023-03-13T12:17:47.090Z,5.00
2023-03-13T12:23:17.116Z,5.38
2023-03-13T12:28:18.741Z,5.50
2023-03-13T12:33:34.872Z,5.85
2023-03-13T12:39:00.195Z,6.75
2023-03-13T12:44:08.761Z,5.60
2023-03-13T12:49:19.834Z,5.40
2023-03-13T12:55:00.220Z,6.40
2023-03-13T13:00:06.732Z,7.50
2023-03-13T13:05:19.589Z,8.57
2023-03-13T13:10:26.229Z,6.47
2023-03-13T13:15:29.456Z,6.45
2023-03-13T13:20:41.181Z,5.57
2023-03-13T13:25:42.846Z,5.88
2023-03-13T13:30:44.710Z,4.97
2023-03-13T13:35:48.001Z,5.60
2023-03-13T13:41:00.817Z,6.75
2023-03-13T13:46:22.045Z,5.55
2023-03-13T13:51:25.142Z,5.43
2023-03-13T13:57:07.912Z,5.90
2023-03-13T14:02:10.580Z,5.38
2023-03-13T14:07:18.637Z,6.57
2023-03-13T14:12:38.219Z,6.30
2023-03-13T14:17:44.663Z,6.78
2023-03-13T14:22:48.355Z,6.72
2023-03-13T14:27:53.005Z,6.85
2023-03-13T14:32:54.762Z,6.95
2023-03-13T14:38:03.696Z,6.00
2023-03-13T14:43:20.132Z,6.10
2023-03-13T14:48:27.080Z,6.88
2023-03-13T14:53:28.910Z,5.47
2023-03-13T14:58:30.834Z,4.97
2023-03-13T15:03:33.594Z,5.75
2023-03-13T15:08:37.796Z,5.68
2023-03-13T15:13:39.518Z,5.85
2023-03-13T15:18:41.206Z,6.00
2023-03-13T15:23:52.868Z,6.32
2023-03-13T15:28:55.456Z,6.15
2023-03-13T15:33:59.748Z,6.25
2023-03-13T15:39:01.888Z,6.38
2023-03-13T15:44:04.661Z,6.40
2023-03-13T15:49:11.273Z,6.03
2023-03-13T15:54:12.916Z,8.98
2023-03-13T15:59:16.266Z,6.32
2023-03-13T16:04:17.908Z,6.32
2023-03-13T16:09:19.559Z,6.32
2023-03-13T16:14:21.144Z,6.57
2023-03-13T16:19:22.755Z,6.28
2023-03-13T16:24:24.413Z,6.38
2023-03-13T16:29:26.015Z,5.93
2023-03-13T16:34:27.639Z,6.82
2023-03-13T16:39:29.244Z,6.45
2023-03-13T16:44:30.876Z,7.28
2023-03-13T16:49:32.482Z,7.07
2023-03-13T16:54:34.094Z,7.32
2023-03-13T16:59:35.735Z,7.32
2023-03-13T17:04:37.320Z,6.45
2023-03-13T17:09:38.921Z,6.93
2023-03-13T17:14:40.594Z,6.75
2023-03-13T17:19:42.421Z,6.07
2023-03-13T17:24:44.151Z,7.05
2023-03-13T17:29:45.743Z,5.68
2023-03-13T17:34:47.417Z,7.20
2023-03-13T17:39:51.350Z,6.22
2023-03-13T17:44:52.986Z,6.43
2023-03-13T17:49:54.610Z,6.28
2023-03-13T17:54:56.210Z,6.25
2023-03-13T17:59:57.905Z,6.57
2023-03-13T18:05:00.896Z,6.18
2023-03-13T18:10:02.656Z,6.47
2023-03-13T18:15:04.567Z,7.13
2023-03-13T18:20:14.427Z,6.57
2023-03-13T18:25:16.096Z,6.75
2023-03-13T18:30:21.064Z,6.38
2023-03-13T18:35:22.798Z,6.53
2023-03-13T18:40:27.686Z,6.43
2023-03-13T18:45:29.404Z,6.85
2023-03-13T18:50:32.497Z,3.47
2023-03-13T18:55:34.223Z,6.32
2023-03-13T19:00:35.962Z,4.55
2023-03-13T19:05:37.693Z,2.80
2023-03-13T19:10:40.261Z,3.05
2023-03-13T19:15:41.928Z,2.17
2023-03-13T19:20:43.823Z,7.53
2023-03-13T19:25:45.450Z,2.70
2023-03-13T19:30:47.633Z,3.50
2023-03-13T19:35:49.273Z,2.55
2023-03-13T19:40:51.276Z,2.67
2023-03-13T19:45:52.990Z,2.10
2023-03-13T19:50:54.610Z,2.17
2023-03-13T19:55:56.409Z,2.25
2023-03-13T20:01:00.686Z,3.08
2023-03-13T20:06:22.500Z,3.10
2023-03-13T20:11:25.409Z,3.45
2023-03-13T20:16:30.085Z,1.88
2023-03-13T20:21:36.902Z,2.15
2023-03-13T20:26:38.698Z,2.83
2023-03-13T20:31:40.382Z,2.30
2023-03-13T20:36:42.083Z,3.40
2023-03-13T20:41:43.772Z,3.17
2023-03-13T20:46:45.503Z,2.60
2023-03-13T20:51:47.438Z,2.57
2023-03-13T20:56:49.063Z,2.95
2023-03-13T21:01:50.743Z,2.40
2023-03-13T21:06:52.416Z,3.80
2023-03-13T21:11:54.016Z,2.20
2023-03-13T21:16:55.739Z,1.77
2023-03-13T21:21:57.388Z,1.88
2023-03-13T21:26:59.806Z,2.30
2023-03-13T21:32:01.582Z,1.95
2023-03-13T21:37:03.217Z,2.10
2023-03-13T21:42:04.878Z,2.25
2023-03-13T21:47:07.089Z,2.90
2023-03-13T21:52:08.686Z,2.80
2023-03-13T21:57:10.387Z,2.38
2023-03-13T22:02:13.276Z,2.90
2023-03-13T22:07:14.999Z,2.33
2023-03-13T22:12:18.262Z,3.35
2023-03-13T22:17:20.541Z,2.15
2023-03-13T22:22:23.125Z,2.40
2023-03-13T22:27:25.449Z,2.70
2023-03-13T22:32:27.237Z,2.30
2023-03-13T22:37:28.865Z,3.40
2023-03-13T22:42:30.491Z,4.30
2023-03-13T22:47:32.651Z,3.13
2023-03-13T22:52:34.342Z,4.43
2023-03-13T22:57:35.958Z,3.45
2023-03-13T23:02:37.808Z,4.15
2023-03-13T23:07:40.882Z,3.47
2023-03-13T23:12:42.500Z,2.80
2023-03-13T23:17:44.093Z,3.08
2023-03-13T23:22:47.659Z,3.13
2023-03-13T23:27:49.518Z,2.25
2023-03-13T23:32:51.217Z,2.50
2023-03-13T23:37:55.603Z,2.00
2023-03-13T23:42:57.194Z,2.22
2023-03-13T23:47:58.793Z,1.73
2023-03-13T23:53:00.440Z,1.90
2023-03-13T23:58:02.024Z,7.50
